createdAt,value
2019-05-05T00:01:05.745Z,72.83
2019-05-05T00:03:37.135Z,73.31
2019-05-05T00:06:06.597Z,73.52
2019-05-05T00:08:35.041Z,73.30
2019-05-05T00:11:01.160Z,72.79
2019-05-05T00:13:39.552Z,72.82
2019-05-05T00:16:24.627Z,73.01
2019-05-05T00:18:54.306Z,72.24
2019-05-05T00:21:20.872Z,71.85
2019-05-05T00:23:48.194Z,71.98
2019-05-05T00:26:15.034Z,72.12
2019-05-05T00:28:41.542Z,72.36
2019-05-05T00:31:08.047Z,72.40
2019-05-05T00:33:34.756Z,71.98
2019-05-05T00:36:01.193Z,71.97
2019-05-05T00:38:28.677Z,72.05
2019-05-05T00:40:55.186Z,72.36
2019-05-05T00:43:21.919Z,72.64
2019-05-05T00:45:50.175Z,72.15
2019-05-05T00:48:21.191Z,71.87
2019-05-05T00:50:47.560Z,71.81
2019-05-05T00:53:14.620Z,71.30
2019-05-05T00:55:41.148Z,71.47
2019-05-05T00:58:07.503Z,71.41
2019-05-05T01:00:50.693Z,71.68
2019-05-05T01:03:18.950Z,71.82
2019-05-05T01:05:47.195Z,71.86
2019-05-05T01:08:15.489Z,71.35
2019-05-05T01:10:44.224Z,71.47
2019-05-05T01:13:10.284Z,71.96
2019-05-05T01:15:36.629Z,71.57
2019-05-05T01:18:04.723Z,72.14
2019-05-05T01:20:31.581Z,71.84
2019-05-05T01:22:58.280Z,71.57
2019-05-05T01:25:25.345Z,70.89
2019-05-05T01:27:51.987Z,70.89
2019-05-05T01:30:20.933Z,70.47
2019-05-05T01:32:49.289Z,70.99
2019-05-05T01:35:15.580Z,70.52
2019-05-05T01:37:44.326Z,70.43
2019-05-05T01:40:27.001Z,70.65
2019-05-05T01:42:54.761Z,70.77
2019-05-05T01:45:21.381Z,70.81
2019-05-05T01:47:47.735Z,71.18
2019-05-05T01:50:20.639Z,71.29
2019-05-05T01:52:42.288Z,70.53
2019-05-05T01:55:08.721Z,70.45
2019-05-05T01:57:35.091Z,70.83
2019-05-05T02:00:05.257Z,71.15
2019-05-05T02:02:34.153Z,71.20
2019-05-05T02:05:00.511Z,71.02
2019-05-05T02:07:26.969Z,71.30
2019-05-05T02:09:55.350Z,71.04
2019-05-05T02:12:21.684Z,71.50
2019-05-05T02:14:48.315Z,71.51
2019-05-05T02:17:14.679Z,70.96
2019-05-05T02:19:41.001Z,71.13
2019-05-05T02:22:07.455Z,71.45
2019-05-05T02:24:35.367Z,71.55
2019-05-05T02:27:05.127Z,71.09
2019-05-05T02:29:36.818Z,71.45
2019-05-05T02:32:15.745Z,70.54
2019-05-05T02:34:45.641Z,70.91
2019-05-05T02:37:12.302Z,70.98
2019-05-05T02:39:45.049Z,71.03
2019-05-05T02:42:07.077Z,70.70
2019-05-05T02:44:34.774Z,70.71
2019-05-05T02:47:06.657Z,71.00
2019-05-05T02:49:35.205Z,72.05
2019-05-05T02:52:04.703Z,71.96
2019-05-05T02:54:33.827Z,71.83
2019-05-05T02:57:00.795Z,71.96
2019-05-05T02:59:30.651Z,71.47
2019-05-05T03:02:08.150Z,71.64
2019-05-05T03:04:35.137Z,71.89
2019-05-05T03:07:04.679Z,72.42
2019-05-05T03:09:31.848Z,72.33
2019-05-05T03:12:02.200Z,72.78
2019-05-05T03:14:31.283Z,72.91
2019-05-05T03:16:57.896Z,72.78
2019-05-05T03:19:25.043Z,72.68
2019-05-05T03:21:52.160Z,72.79
2019-05-05T03:24:18.605Z,72.85
2019-05-05T03:26:46.108Z,72.85
2019-05-05T03:29:14.769Z,72.82
2019-05-05T03:31:41.143Z,72.77
2019-05-05T03:34:08.562Z,72.54
2019-05-05T03:36:35.208Z,73.10
2019-05-05T03:39:01.755Z,72.48
2019-05-05T03:41:34.638Z,71.50
2019-05-05T03:44:19.962Z,70.91
2019-05-05T03:46:47.014Z,71.20
2019-05-05T03:49:14.140Z,71.44
2019-05-05T03:51:40.567Z,70.88
2019-05-05T03:54:06.991Z,70.71
2019-05-05T03:56:34.925Z,70.61
2019-05-05T03:59:01.580Z,70.40
2019-05-05T04:01:38.152Z,70.81
2019-05-05T04:04:19.568Z,70.46
2019-05-05T04:06:47.244Z,69.90
2019-05-05T04:09:13.781Z,69.26
2019-05-05T04:11:40.686Z,68.34
2019-05-05T04:14:08.306Z,68.12
2019-05-05T04:16:43.595Z,68.19
2019-05-05T04:19:13.794Z,68.67
2019-05-05T04:21:40.168Z,68.66
2019-05-05T04:24:07.665Z,68.97
2019-05-05T04:26:34.021Z,68.24
2019-05-05T04:29:02.444Z,67.32
2019-05-05T04:31:28.630Z,66.17
2019-05-05T04:34:24.095Z,65.55
2019-05-05T04:36:51.526Z,65.67
2019-05-05T04:39:17.923Z,66.01
2019-05-05T04:41:44.378Z,65.49
2019-05-05T04:44:10.897Z,65.07
2019-05-05T04:46:37.581Z,65.20
2019-05-05T04:49:17.771Z,65.40
2019-05-05T04:51:50.062Z,65.14
2019-05-05T04:54:19.415Z,64.34
2019-05-05T04:56:45.740Z,64.94
2019-05-05T04:59:14.287Z,64.04
2019-05-05T05:01:40.697Z,63.46
2019-05-05T05:04:25.659Z,63.01
2019-05-05T05:06:54.298Z,64.53
2019-05-05T05:09:20.777Z,65.14
2019-05-05T05:11:47.091Z,64.95
2019-05-05T05:14:14.366Z,63.85
2019-05-05T05:16:40.824Z,62.87
2019-05-05T05:19:07.492Z,62.22
2019-05-05T05:21:34.266Z,62.07
2019-05-05T05:24:00.818Z,62.38
2019-05-05T05:26:28.241Z,62.47
2019-05-05T05:28:54.610Z,61.79
2019-05-05T05:31:20.970Z,61.48
2019-05-05T05:33:47.336Z,61.60
2019-05-05T05:36:14.424Z,62.58
2019-05-05T05:38:43.731Z,61.36
2019-05-05T05:41:13.654Z,61.10
2019-05-05T05:43:43.994Z,60.30
2019-05-05T05:46:18.523Z,59.83
2019-05-05T05:49:04.760Z,58.52
2019-05-05T05:51:31.120Z,58.73
2019-05-05T05:53:57.453Z,59.79
2019-05-05T05:56:24.964Z,59.04
2019-05-05T05:58:51.546Z,58.49
2019-05-05T06:01:17.943Z,58.97
2019-05-05T06:03:45.367Z,57.25
2019-05-05T06:06:13.728Z,57.12
2019-05-05T06:08:39.958Z,57.38
2019-05-05T06:11:06.732Z,57.52
2019-05-05T06:13:33.697Z,56.83
2019-05-05T06:16:00.167Z,56.21
2019-05-05T06:18:26.599Z,55.79
2019-05-05T06:20:53.779Z,55.11
2019-05-05T06:23:20.389Z,54.02
2019-05-05T06:25:47.616Z,52.16
2019-05-05T06:28:14.539Z,50.66
2019-05-05T06:30:41.397Z,50.98
2019-05-05T06:33:07.764Z,50.32
2019-05-05T06:35:34.606Z,51.12
2019-05-05T06:38:00.951Z,49.92
2019-05-05T06:40:29.198Z,48.93
2019-05-05T06:42:57.453Z,50.24
2019-05-05T06:45:34.458Z,49.49
2019-05-05T06:48:00.836Z,47.92
2019-05-05T06:50:27.187Z,48.34
2019-05-05T06:52:53.730Z,46.84
2019-05-05T06:55:20.120Z,47.91
2019-05-05T06:57:46.464Z,46.23
2019-05-05T07:00:13.965Z,45.86
2019-05-05T07:02:40.547Z,43.51
2019-05-05T07:05:07.027Z,42.68
2019-05-05T07:07:34.316Z,43.00
2019-05-05T07:10:00.836Z,43.96
2019-05-05T07:12:27.183Z,43.21
2019-05-05T07:14:53.887Z,40.94
2019-05-05T07:17:20.586Z,41.44
2019-05-05T07:19:47.052Z,40.13
2019-05-05T07:22:14.055Z,41.36
2019-05-05T07:24:43.515Z,42.35
2019-05-05T07:27:09.729Z,42.72
2019-05-05T07:29:36.369Z,43.56
2019-05-05T07:32:03.937Z,43.70
2019-05-05T07:34:33.507Z,44.54
2019-05-05T07:37:00.051Z,45.63
2019-05-05T07:39:26.434Z,46.77
2019-05-05T07:41:54.202Z,49.65
2019-05-05T07:44:26.603Z,49.69
2019-05-05T07:46:49.020Z,48.84
2019-05-05T07:49:15.356Z,48.24
2019-05-05T07:51:43.953Z,49.52
2019-05-05T07:54:09.930Z,48.37
2019-05-05T07:56:36.278Z,47.10
2019-05-05T07:59:04.005Z,46.66
2019-05-05T08:01:30.422Z,48.12
2019-05-05T08:03:57.764Z,45.80
2019-05-05T08:06:24.089Z,45.21
2019-05-05T08:08:51.246Z,44.16
2019-05-05T08:11:18.469Z,45.16
2019-05-05T08:13:45.377Z,46.41
2019-05-05T08:16:26.151Z,45.28
2019-05-05T08:19:11.239Z,44.24
2019-05-05T08:21:37.571Z,44.10
2019-05-05T08:24:13.858Z,41.82
2019-05-05T08:26:45.046Z,40.19
2019-05-05T08:29:29.885Z,40.87
2019-05-05T08:32:14.734Z,40.48
2019-05-05T08:34:55.084Z,41.73
2019-05-05T08:37:09.827Z,42.78
2019-05-05T08:39:36.150Z,45.01
2019-05-05T08:42:04.309Z,44.05
2019-05-05T08:44:31.009Z,42.80
2019-05-05T08:46:57.438Z,43.21
2019-05-05T08:49:24.402Z,43.83
2019-05-05T08:51:51.186Z,41.18
2019-05-05T08:54:17.541Z,40.00
2019-05-05T08:56:44.757Z,38.32
2019-05-05T08:59:11.176Z,38.91
2019-05-05T09:01:37.565Z,37.48
2019-05-05T09:04:04.185Z,36.92
2019-05-05T09:06:31.010Z,37.76
2019-05-05T09:08:59.607Z,34.98
2019-05-05T09:11:26.116Z,34.01
2019-05-05T09:13:54.638Z,35.96
2019-05-05T09:16:21.276Z,36.38
2019-05-05T09:19:01.370Z,36.69
2019-05-05T09:21:27.757Z,37.94
2019-05-05T09:23:59.996Z,38.80
2019-05-05T09:26:25.197Z,38.97
2019-05-05T09:28:56.244Z,37.07
2019-05-05T09:31:23.943Z,36.52
2019-05-05T09:33:50.476Z,37.66
2019-05-05T09:36:16.877Z,36.86
2019-05-05T09:38:45.004Z,35.75
2019-05-05T09:41:11.427Z,36.32
2019-05-05T09:43:37.773Z,35.96
2019-05-05T09:46:04.135Z,33.33
2019-05-05T09:48:33.580Z,32.62
2019-05-05T09:51:00.110Z,32.33
2019-05-05T09:53:27.426Z,34.50
2019-05-05T09:55:54.737Z,36.88
2019-05-05T09:58:21.665Z,36.39
2019-05-05T10:00:48.097Z,36.24
2019-05-05T10:03:14.805Z,35.37
2019-05-05T10:05:42.667Z,34.61
2019-05-05T10:08:10.389Z,33.46
2019-05-05T10:10:36.718Z,34.70
2019-05-05T10:13:04.332Z,36.13
2019-05-05T10:15:30.713Z,36.14
2019-05-05T10:17:57.564Z,34.79
2019-05-05T10:20:23.924Z,34.71
2019-05-05T10:22:50.316Z,34.13
2019-05-05T10:25:35.351Z,31.20
2019-05-05T10:28:04.237Z,31.02
2019-05-05T10:30:30.673Z,32.55
2019-05-05T10:32:57.006Z,33.98
2019-05-05T10:35:23.843Z,32.24
2019-05-05T10:37:50.363Z,29.62
2019-05-05T10:40:18.902Z,30.40
2019-05-05T10:42:53.693Z,29.98
2019-05-05T10:45:24.467Z,28.82
2019-05-05T10:47:51.352Z,27.97
2019-05-05T10:50:18.194Z,29.24
2019-05-05T10:52:44.629Z,30.27
2019-05-05T10:55:11.931Z,30.90
2019-05-05T10:57:38.565Z,31.17
2019-05-05T11:00:12.256Z,30.40
2019-05-05T11:02:34.929Z,30.08
2019-05-05T11:05:04.156Z,30.90
2019-05-05T11:07:30.810Z,29.60
2019-05-05T11:09:57.266Z,29.14
2019-05-05T11:12:24.672Z,28.34
2019-05-05T11:14:51.299Z,29.91
2019-05-05T11:17:17.590Z,30.02
2019-05-05T11:19:44.195Z,29.12
2019-05-05T11:22:10.979Z,28.15
2019-05-05T11:24:37.313Z,27.72
2019-05-05T11:27:04.521Z,28.51
2019-05-05T11:29:31.160Z,27.33
2019-05-05T11:31:59.359Z,29.85
2019-05-05T11:34:27.004Z,30.38
2019-05-05T11:36:55.452Z,29.98
2019-05-05T11:39:23.539Z,29.63
2019-05-05T11:41:50.448Z,28.44
2019-05-05T11:44:16.785Z,27.52
2019-05-05T11:46:44.283Z,27.88
2019-05-05T11:49:10.837Z,27.44
2019-05-05T11:51:37.176Z,25.79
2019-05-05T11:54:04.658Z,26.25
2019-05-05T11:56:31.602Z,24.56
2019-05-05T11:58:57.937Z,23.54
2019-05-05T12:01:25.167Z,22.23
2019-05-05T12:03:53.460Z,20.53
2019-05-05T12:06:19.769Z,19.94
2019-05-05T12:08:46.177Z,18.69
2019-05-05T12:11:14.847Z,18.02
2019-05-05T12:13:43.962Z,16.33
2019-05-05T12:16:13.611Z,16.51
2019-05-05T12:18:39.944Z,19.44
2019-05-05T12:21:06.284Z,21.96
2019-05-05T12:23:34.069Z,22.90
2019-05-05T12:26:17.675Z,23.63
2019-05-05T12:28:49.477Z,23.07
2019-05-05T12:31:17.726Z,21.90
2019-05-05T12:33:44.352Z,22.10
2019-05-05T12:36:11.003Z,22.66
2019-05-05T12:38:37.350Z,24.87
2019-05-05T12:41:04.425Z,26.17
2019-05-05T12:43:40.019Z,26.00
2019-05-05T12:46:26.631Z,27.24
2019-05-05T12:48:55.158Z,30.50
2019-05-05T12:51:23.609Z,32.07
2019-05-05T12:53:50.261Z,31.14
2019-05-05T12:56:16.871Z,29.37
2019-05-05T12:58:44.032Z,29.93
2019-05-05T13:01:15.660Z,29.37
2019-05-05T13:03:43.703Z,23.58
2019-05-05T13:06:11.439Z,21.61
2019-05-05T13:08:38.180Z,20.68
2019-05-05T13:11:05.127Z,19.15
2019-05-05T13:13:31.640Z,17.36
2019-05-05T13:15:58.087Z,15.44
2019-05-05T13:18:24.608Z,15.61
2019-05-05T13:20:57.440Z,16.36
2019-05-05T13:23:44.447Z,13.47
2019-05-05T13:26:29.297Z,13.19
2019-05-05T13:28:55.650Z,14.50
2019-05-05T13:31:22.043Z,13.30
2019-05-05T13:33:48.493Z,12.14
2019-05-05T13:36:15.448Z,11.75
2019-05-05T13:38:43.773Z,13.67
2019-05-05T13:41:15.846Z,16.19
2019-05-05T13:43:42.638Z,18.80
2019-05-05T13:46:16.905Z,19.05
2019-05-05T13:48:46.030Z,21.48
2019-05-05T13:51:17.024Z,23.19
2019-05-05T13:53:44.733Z,24.17
2019-05-05T13:56:15.263Z,24.82
2019-05-05T13:58:40.979Z,24.89
2019-05-05T14:01:09.845Z,24.79
2019-05-05T14:03:36.038Z,23.27
2019-05-05T14:06:04.586Z,21.46
2019-05-05T14:08:35.601Z,20.13
2019-05-05T14:11:00.514Z,19.66
2019-05-05T14:13:27.142Z,17.96
2019-05-05T14:15:54.496Z,16.60
2019-05-05T14:18:21.157Z,17.50
2019-05-05T14:20:47.669Z,18.07
2019-05-05T14:23:14.951Z,17.36
2019-05-05T14:25:41.432Z,18.50
2019-05-05T14:28:07.850Z,21.80
2019-05-05T14:30:46.330Z,22.46
2019-05-05T14:33:14.894Z,23.37
2019-05-05T14:35:48.942Z,25.74
2019-05-05T14:38:25.724Z,26.30
2019-05-05T14:40:53.778Z,28.47
2019-05-05T14:43:20.489Z,28.72
2019-05-05T14:45:46.927Z,29.31
2019-05-05T14:48:14.629Z,31.79
2019-05-05T14:50:41.028Z,33.36
2019-05-05T14:53:07.357Z,35.05
2019-05-05T14:55:33.722Z,37.90
2019-05-05T14:58:00.981Z,39.04
2019-05-05T15:00:28.584Z,39.05
2019-05-05T15:02:55.278Z,38.96
2019-05-05T15:05:39.904Z,38.79
2019-05-05T15:08:07.052Z,38.97
2019-05-05T15:10:47.447Z,38.17
2019-05-05T15:13:16.145Z,36.90
2019-05-05T15:15:42.945Z,35.63
2019-05-05T15:18:10.397Z,36.66
2019-05-05T15:20:36.866Z,35.20
2019-05-05T15:23:04.737Z,35.80
2019-05-05T15:25:34.135Z,34.81
2019-05-05T15:28:00.726Z,32.43
2019-05-05T15:30:27.336Z,31.25
2019-05-05T15:32:54.183Z,30.42
2019-05-05T15:35:22.147Z,29.04
2019-05-05T15:37:48.730Z,24.62
2019-05-05T15:40:16.472Z,21.58
2019-05-05T15:42:43.947Z,19.86
2019-05-05T15:45:10.798Z,15.46
2019-05-05T15:47:37.222Z,13.45
2019-05-05T15:50:05.682Z,12.24
2019-05-05T15:52:32.037Z,12.40
2019-05-05T15:54:58.402Z,12.45
2019-05-05T15:57:25.108Z,13.03
2019-05-05T15:59:51.639Z,14.00
2019-05-05T16:02:18.731Z,13.56
2019-05-05T16:04:46.160Z,12.65
2019-05-05T16:07:13.900Z,12.44
2019-05-05T16:09:41.598Z,12.38
2019-05-05T16:12:08.048Z,14.37
2019-05-05T16:14:36.343Z,14.62
2019-05-05T16:17:10.469Z,14.41
2019-05-05T16:19:46.169Z,14.35
2019-05-05T16:22:17.540Z,14.37
2019-05-05T16:24:45.788Z,14.80
2019-05-05T16:27:19.484Z,13.85
2019-05-05T16:29:40.470Z,15.79
2019-05-05T16:32:18.448Z,19.12
2019-05-05T16:34:36.117Z,23.12
2019-05-05T16:37:03.880Z,25.49
2019-05-05T16:39:33.557Z,26.34
2019-05-05T16:42:00.347Z,27.38
2019-05-05T16:44:27.438Z,27.98
2019-05-05T16:46:54.058Z,27.94
2019-05-05T16:49:20.818Z,28.56
2019-05-05T16:52:00.525Z,29.82
2019-05-05T16:54:27.875Z,30.19
2019-05-05T16:56:55.231Z,31.65
2019-05-05T16:59:23.850Z,32.56
2019-05-05T17:01:50.168Z,33.14
2019-05-05T17:04:16.877Z,33.36
2019-05-05T17:06:45.488Z,34.24
2019-05-05T17:09:11.580Z,34.51
2019-05-05T17:11:38.448Z,35.18
2019-05-05T17:14:18.682Z,34.56
2019-05-05T17:16:49.789Z,34.89
2019-05-05T17:19:16.579Z,35.21
2019-05-05T17:22:01.433Z,34.33
2019-05-05T17:24:27.796Z,34.52
2019-05-05T17:26:54.869Z,34.01
2019-05-05T17:29:23.496Z,31.77
2019-05-05T17:31:49.816Z,27.54
2019-05-05T17:34:16.559Z,28.36
2019-05-05T17:36:45.127Z,31.07
2019-05-05T17:39:11.318Z,31.46
2019-05-05T17:41:50.433Z,32.24
2019-05-05T17:44:33.734Z,32.77
2019-05-05T17:47:00.152Z,33.54
2019-05-05T17:49:28.649Z,33.75
2019-05-05T17:52:03.900Z,34.27
2019-05-05T17:54:35.669Z,34.46
2019-05-05T17:57:04.070Z,35.19
2019-05-05T17:59:33.767Z,34.42
2019-05-05T18:02:04.728Z,35.57
2019-05-05T18:04:40.009Z,36.21
2019-05-05T18:07:14.304Z,36.13
2019-05-05T18:10:00.633Z,36.63
2019-05-05T18:12:45.619Z,37.64
2019-05-05T18:15:30.644Z,37.99
2019-05-05T18:17:57.338Z,38.84
2019-05-05T18:20:24.361Z,39.39
2019-05-05T18:22:50.867Z,39.10
2019-05-05T18:25:17.173Z,39.57
2019-05-05T18:27:43.561Z,39.83
2019-05-05T18:30:10.530Z,39.79
2019-05-05T18:32:36.968Z,40.28
2019-05-05T18:35:06.602Z,40.22
2019-05-05T18:37:34.007Z,40.82
2019-05-05T18:40:00.579Z,41.86
2019-05-05T18:42:26.980Z,42.07
2019-05-05T18:44:55.348Z,42.56
2019-05-05T18:47:21.812Z,42.74
2019-05-05T18:49:48.215Z,43.16
2019-05-05T18:52:14.683Z,42.82
2019-05-05T18:54:41.014Z,43.01
2019-05-05T18:57:08.787Z,44.55
2019-05-05T18:59:35.177Z,45.93
2019-05-05T19:02:19.699Z,46.64
2019-05-05T19:04:57.473Z,47.25
2019-05-05T19:07:33.698Z,47.75
2019-05-05T19:10:00.520Z,49.14
2019-05-05T19:12:26.920Z,49.90
2019-05-05T19:14:54.969Z,50.25
2019-05-05T19:17:23.430Z,50.32
2019-05-05T19:19:54.663Z,50.68
2019-05-05T19:22:20.936Z,49.91
2019-05-05T19:24:47.331Z,49.89
2019-05-05T19:27:24.254Z,50.19
2019-05-05T19:29:51.288Z,50.60
2019-05-05T19:32:19.778Z,50.21
2019-05-05T19:34:47.357Z,49.83
2019-05-05T19:37:14.074Z,48.58
2019-05-05T19:39:41.243Z,48.29
2019-05-05T19:42:09.026Z,48.00
2019-05-05T19:44:35.861Z,47.92
2019-05-05T19:47:05.916Z,47.74
2019-05-05T19:49:33.761Z,46.96
2019-05-05T19:52:00.398Z,46.43
2019-05-05T19:54:27.183Z,46.08
2019-05-05T19:56:54.215Z,45.91
2019-05-05T19:59:21.287Z,45.78
2019-05-05T20:01:47.977Z,45.45
2019-05-05T20:04:14.859Z,45.71
2019-05-05T20:06:44.145Z,45.88
2019-05-05T20:09:11.354Z,46.47
2019-05-05T20:11:37.833Z,47.97
2019-05-05T20:14:09.830Z,49.29
2019-05-05T20:16:51.085Z,50.01
2019-05-05T20:19:17.607Z,50.01
2019-05-05T20:21:44.036Z,50.55
2019-05-05T20:24:10.474Z,50.32
2019-05-05T20:26:38.275Z,49.88
2019-05-05T20:29:13.970Z,50.03
2019-05-05T20:31:34.687Z,49.88
2019-05-05T20:34:05.291Z,49.88
2019-05-05T20:36:34.616Z,49.80
2019-05-05T20:39:01.349Z,49.84
2019-05-05T20:41:29.716Z,49.54
2019-05-05T20:43:56.281Z,49.64
2019-05-05T20:46:23.742Z,49.66
2019-05-05T20:48:50.507Z,49.78
2019-05-05T20:51:17.167Z,50.15
2019-05-05T20:53:44.780Z,50.08
2019-05-05T20:56:12.177Z,49.94
2019-05-05T20:58:38.630Z,49.92
2019-05-05T21:01:05.011Z,49.83
2019-05-05T21:03:31.340Z,49.55
2019-05-05T21:05:57.905Z,49.43
2019-05-05T21:08:25.029Z,49.43
2019-05-05T21:10:53.700Z,49.93
2019-05-05T21:13:20.250Z,50.07
2019-05-05T21:15:46.602Z,49.98
2019-05-05T21:18:14.387Z,50.61
2019-05-05T21:20:41.748Z,51.19
2019-05-05T21:23:10.429Z,51.34
2019-05-05T21:25:44.279Z,51.13
2019-05-05T21:28:10.292Z,51.13
2019-05-05T21:30:36.698Z,51.59
2019-05-05T21:33:04.467Z,51.21
2019-05-05T21:35:31.650Z,51.89
2019-05-05T21:37:58.281Z,51.75
2019-05-05T21:40:25.927Z,52.84
2019-05-05T21:42:54.158Z,51.66
2019-05-05T21:45:20.807Z,51.80
2019-05-05T21:47:47.284Z,51.81
2019-05-05T21:50:15.818Z,52.95
2019-05-05T21:52:44.189Z,52.37
2019-05-05T21:55:27.994Z,52.45
2019-05-05T21:57:57.165Z,52.82
2019-05-05T22:00:59.861Z,53.08
2019-05-05T22:03:27.065Z,53.03
2019-05-05T22:05:53.962Z,53.33
2019-05-05T22:08:23.841Z,53.22
2019-05-05T22:10:49.999Z,53.19
2019-05-05T22:13:16.341Z,53.02
2019-05-05T22:15:43.580Z,53.29
2019-05-05T22:18:10.108Z,53.43
2019-05-05T22:20:41.324Z,53.36
2019-05-05T22:23:07.655Z,53.28
2019-05-05T22:25:34.214Z,53.45
2019-05-05T22:28:00.721Z,53.53
2019-05-05T22:30:27.063Z,53.69
2019-05-05T22:32:53.423Z,53.94
2019-05-05T22:35:19.793Z,54.34
2019-05-05T22:37:46.125Z,54.47
2019-05-05T22:40:24.463Z,54.58
2019-05-05T22:42:51.043Z,54.87
2019-05-05T22:45:19.271Z,55.61
2019-05-05T22:47:45.617Z,55.35
2019-05-05T22:50:13.886Z,55.03
2019-05-05T22:52:41.412Z,54.97
2019-05-05T22:55:08.634Z,54.70
2019-05-05T22:57:35.198Z,54.60
2019-05-05T23:00:04.065Z,54.66
2019-05-05T23:02:34.211Z,54.73
2019-05-05T23:05:10.684Z,55.05
2019-05-05T23:07:37.533Z,54.95
2019-05-05T23:10:05.198Z,54.89
2019-05-05T23:12:31.660Z,55.26
2019-05-05T23:14:58.064Z,55.90
2019-05-05T23:17:34.157Z,55.06
2019-05-05T23:20:19.144Z,55.68
2019-05-05T23:22:47.513Z,55.39
2019-05-05T23:25:14.537Z,56.63
2019-05-05T23:27:49.624Z,55.45
2019-05-05T23:30:18.238Z,55.50
2019-05-05T23:32:45.815Z,55.57
2019-05-05T23:35:14.249Z,56.13
2019-05-05T23:37:41.451Z,56.38
2019-05-05T23:40:08.293Z,56.78
2019-05-05T23:42:34.674Z,56.59
2019-05-05T23:45:01.074Z,56.21
2019-05-05T23:47:27.415Z,56.32
2019-05-05T23:49:53.896Z,56.04
2019-05-05T23:52:20.317Z,56.39
2019-05-05T23:54:46.668Z,55.80
2019-05-05T23:57:13.773Z,55.76
2019-05-05T23:59:40.402Z,55.77
